Aérodrome :
LOGIN :

S'inscrire | Disclaimer

   EN    FR    IT 

 










Légende :    VFR   VFR Marginal   IFR   IFR Intensif   IFR Très Intensif
Visi : 
Plafond : 
>= 8 km
>= 3000ft
5 à 8 km
1000 à 3000 ft
1500m à 5 km
500 à 1000 ft
800 à 1500m
200 à 500 ft
< 800m
< 200 ft
Symboles :   Orages  Brouillard  Fortes neiges  Fortes précipitations  Vent > 20 kt
SIGMETs :   Divers  Orages  Givrage  Turbulence  Onde Orograph.  Cendres Volcan.







- Altitude de l'aérodrome : 1585 ft
- Code IATA : SIR


LSGS - Sion

DERNIER METAR :
  • 210420Z AUTO 24009KT 9999 -RA BKN/// 08/04 Q1007

METARs EXPIRÉS :
  • 210350Z AUTO 25017KT 9999 -RA BKN016 07/04 Q1006
  • 210320Z AUTO 23008KT 170V260 9999 -RA BKN/// 07/04 Q1005
  • 210250Z AUTO 23007KT 170V260 9000 -RA BKN041 07/04 Q1005
  • 210220Z AUTO 23006KT 200V260 9999 -RA BKN/// 06/03 Q1005
  • 210150Z AUTO 25010KT 9999 RA BKN/// 07/02 Q1004

Prévision TAF périmée.
Pas de NOTAMs connus pour ce terrain.



MET'MAP, la Météo Aéronautique d'un coup d'oeil ! - Copyright ORBIFLY Décembre 2007 - Disclaimer

ORBIFLY MET'MAP TEAM :

Programmation & Développement : Alexandra Zaïnal
Conception & Développement : Baudouin d'Aumeries
Co-Programmation & Développement : Marc-Olivier Méhu
Soutien technique & logistique : Manuel Goepfert

Contact : metmap@orbifly.com




SOURCES & CREDITS :

   NOAA